AGROMETEOROLOŠKI PORTAL
Vinorodna pokrajina

Temelj dobrega kmetovanja.

Pregled podatkov za lokacijo Kranj - Delavski most DRSI, meteorološka postaja 1

Pregled senzorjev na lokaciji

ID Ime Zadnja
vrednost
Datum in čas
meritve
(lokalni čas)
Tip
senzorja
6300 Zračni tlak (hPa) 970 hPa 19.4.2024 13:30 DRSI
6297 Relativna zračna vlaga (2 m) (% RH) 37 % RH 19.4.2024 13:30 DRSI
6296 Temperatura (2 m) (°C) 11,3 °C 19.4.2024 13:30 DRSI
6299 Smer vetra (2 m) (°) 223 ° 19.4.2024 13:30 DRSI
6298 Hitrost vetra (2 m) (km/h) 5 km/h 19.4.2024 13:30 DRSI

Pregled podatkov zadnjih 24 ur

Zap.
št.
Datum in čas
(lokalni čas)
Kranj - Delavski most DRSI
Zračni
tlak
Relativna
zračna
vlaga
(2
m)
Temperatura
(2
m)
Smer
vetra
(2
m)
Hitrost
vetra
(2
m)
1 19.4.2024 13:30 970,4 36,7 11,3 222,9 4,8
2 19.4.2024 13:00 971,1 42,3 10,8 133 5,5
3 19.4.2024 12:30 971,4 46 10,3 82,9 4,6
4 19.4.2024 12:00 972 52 9,1 185,1 4,6
5 19.4.2024 11:30 972 60,7 8,1 130,9 6,7
6 19.4.2024 11:00 973 63 7,5 103,3 5,4
7 19.4.2024 10:30 973 67,3 6,6 160 8,5
8 19.4.2024 10:00 973 79,3 5,7 154,8 5,2
9 19.4.2024 09:30 973 85,3 4,5 100,5 4,8
10 19.4.2024 09:00 973 90,3 3 113,2 4,3
11 19.4.2024 08:30 973 95,7 1,1 136,7 4,1
12 19.4.2024 08:00 973 96 0,7 129,3 3,6
13 19.4.2024 07:30 973 96,3 0,3 79,4 3
14 19.4.2024 07:00 972,6 97 0,2 83 2,5
15 19.4.2024 06:30 972 96,7 0,1 204,3 1,9
16 19.4.2024 06:00 972 95,7 0,2 118,9 2,8
17 19.4.2024 05:30 972 95,3 0,4 150,1 2,3
18 19.4.2024 05:00 972 95,7 0,4 119,7 2,9
19 19.4.2024 04:30 972 95,7 0,8 142 1,9
20 19.4.2024 04:00 972 95,7 1,1 150,6 3,7
21 19.4.2024 03:30 972 95 1,4 174,8 3,6
22 19.4.2024 03:00 972 94,7 1,6 167,8 3,4
23 19.4.2024 02:30 972 94,3 1,9 139,3 2,6
24 19.4.2024 02:00 972 94 2,3 110,6 2,6
25 19.4.2024 01:30 971,7 94 2,3 131,2 1,2
26 19.4.2024 01:00 971,7 93,3 2,7 114 3,6
27 19.4.2024 00:30 971,1 93 3,3 186,5 3,6
28 19.4.2024 00:00 971,1 92 3,7 162,2 2,8
29 18.4.2024 23:30 971,1 90,7 4 191,7 2,9
30 18.4.2024 23:00 971,1 89,7 4,2 131,2 2,9
31 18.4.2024 22:30 971,1 88 4,7 185,4 2,4
32 18.4.2024 22:00 970,7 86 5,1 285,7 3,8
33 18.4.2024 21:30 970,1 85,7 5,5 287 4,7
34 18.4.2024 21:00 970,1 84 6,2 275,2 4,9
35 18.4.2024 20:30 969,8 83 6,5 314,3 4,9
36 18.4.2024 20:00 969,1 79,3 7,1 315,8 3,8
37 18.4.2024 19:30 969,1 74 7,8 337 2,8
38 18.4.2024 19:00 969,1 71,3 8,4 185,9 2,5
39 18.4.2024 18:30 968,2 68 9,1 123,7 4,8
40 18.4.2024 18:00 968,2 68 8,5 142,4 2,9
41 18.4.2024 17:30 968,2 75 7,7 191,8 3,1
42 18.4.2024 17:00 968,2 77,3 7,2 189 4,2
43 18.4.2024 16:30 968,2 80,3 6,6 193,3 5,9
44 18.4.2024 16:00 967,9 81,7 6,2 201,3 8
45 18.4.2024 15:30 967,2 79,7 6,6 154,3 6,1
46 18.4.2024 15:00 967,2 77,7 6,9 110 14,8